This is the latest recevied weather packets stored in our database for station/object N6RDS. If no packets are shown the sender has not sent any weather packets the latest 10 day(s).
| Time | Temp. | Humidity | Pressure | Rain* | Wind** | Luminosity | Snow |
|---|---|---|---|---|---|---|---|
| 1777572354 | 18.33° C | 22% | 1022.8 hPa | 0 mm | - | 767 W/m² | - |
| 1777572050 | 19.44° C | 21% | 1022.9 hPa | 0 mm | - | 746 W/m² | - |
| 1777571750 | 19.44° C | 21% | 1022.9 hPa | 0 mm | - | 736 W/m² | - |
| 1777571448 | 18.33° C | 22% | 1022.8 hPa | 0 mm | - | 720 W/m² | - |
| 1777571144 | 18.33° C | 23% | 1022.9 hPa | 0 mm | - | 713 W/m² | - |
| 1777570840 | 17.78° C | 24% | 1022.8 hPa | 0 mm | - | 703 W/m² | - |
| 1777570536 | 18.33° C | 25% | 1023.1 hPa | 0 mm | - | 695 W/m² | - |
| 1777570233 | 18.33° C | 23% | 1023.1 hPa | 0 mm | - | 683 W/m² | - |
| 1777569928 | 17.22° C | 25% | 1023.2 hPa | 0 mm | - | 672 W/m² | - |
| 1777569624 | 18.89° C | 22% | 1023.3 hPa | 0 mm | - | 662 W/m² | - |
| 1777569321 | 18.33° C | 22% | 1023.2 hPa | 0 mm | - | 652 W/m² | - |
| 1777569017 | 18.33° C | 22% | 1022.9 hPa | 0 mm | - | 643 W/m² | - |
| 1777568714 | 17.22° C | 25% | 1023.1 hPa | 0 mm | - | 632 W/m² | - |
| 1777568411 | 17.78° C | 24% | 1023.2 hPa | 0 mm | - | 622 W/m² | - |
| 1777568109 | 17.78° C | 23% | 1022.9 hPa | 0 mm | - | 610 W/m² | - |
| 1777567805 | 17.22° C | 25% | 1023.2 hPa | 0 mm | - | 600 W/m² | - |
| 1777567501 | 16.67° C | 24% | 1022.9 hPa | 0 mm | - | 588 W/m² | - |
| 1777567198 | 17.22° C | 23% | 1023.2 hPa | 0 mm | - | 575 W/m² | - |
| 1777566896 | 16.67° C | 24% | 1023.3 hPa | 0 mm | - | 562 W/m² | - |
| 1777566594 | 16.11° C | 25% | 1023.3 hPa | 0 mm | - | 551 W/m² | - |
| 1777566291 | 16.67° C | 25% | 1023.2 hPa | 0 mm | - | 537 W/m² | - |
| 1777565989 | 16.67° C | 24% | 1023.2 hPa | 0 mm | - | 524 W/m² | - |
| 1777565684 | 16.11° C | 25% | 1023.3 hPa | 0 mm | - | 509 W/m² | - |
| 1777565381 | 16.11° C | 26% | 1023.1 hPa | 0 mm | - | 491 W/m² | - |
| 1777565076 | 16.11° C | 25% | 1023.3 hPa | 0 mm | - | 476 W/m² | - |
* Rain latest hour (hover to see other rain measurements)
** Current wind speed in m/s (hover to see current wind gust speed)